Time;durP1;ratioP1;P1;durP2;ratioP2;P2;SDS_P1;SDS_P2;PMS_P1;PMS_P2;Temp;Humidity;BMP_temperature;BMP_pressure;BME280_temperature;BME280_humidity;BME280_pressure;Samples;Min_cycle;Max_cycle;Signal;HPM_P1;HPM_P2
2023/08/10 00:00:41;;;;;;;6.10;1.80;;;;;;;14.44;83.65;101230.84;106598;1256;72686;-69
2023/08/10 00:03:08;;;;;;;5.50;1.70;;;;;;;14.40;84.00;101233.70;106838;1256;61133;-69
2023/08/10 00:05:37;;;;;;;3.90;1.50;;;;;;;14.35;84.22;101232.16;107421;1256;61963;-69
2023/08/10 00:08:03;;;;;;;5.50;2.00;;;;;;;14.30;84.32;101230.83;107570;1256;73544;-69
2023/08/10 00:10:30;;;;;;;4.20;1.70;;;;;;;14.25;84.65;101231.52;106335;1256;71729;-70
2023/08/10 00:12:57;;;;;;;5.80;1.60;;;;;;;14.19;84.74;101230.89;106519;1259;71560;-69
2023/08/10 00:15:24;;;;;;;5.10;1.60;;;;;;;14.12;84.98;101228.71;106210;1256;61390;-67
2023/08/10 00:17:50;;;;;;;5.20;1.70;;;;;;;14.04;85.26;101231.80;108048;1256;62016;-69
2023/08/10 00:20:17;;;;;;;5.40;2.00;;;;;;;13.97;85.50;101234.48;106295;1256;73767;-69
2023/08/10 00:22:44;;;;;;;7.40;1.90;;;;;;;13.88;86.07;101235.88;108092;1256;71297;-69
2023/08/10 00:25:12;;;;;;;5.10;1.90;;;;;;;13.82;86.82;101237.45;106994;1256;71784;-68
2023/08/10 00:27:38;;;;;;;7.80;2.00;;;;;;;13.77;87.01;101238.45;106194;1256;61319;-68
2023/08/10 00:30:09;;;;;;;4.40;1.60;;;;;;;13.72;87.43;101243.24;107100;1257;61241;-68
2023/08/10 00:32:36;;;;;;;6.50;2.10;;;;;;;13.66;87.69;101239.34;105986;1257;72363;-71
2023/08/10 00:35:04;;;;;;;4.90;2.00;;;;;;;13.62;87.79;101238.88;106037;1256;70535;-69
2023/08/10 00:37:31;;;;;;;4.70;1.80;;;;;;;13.58;87.74;101241.05;106035;1256;71299;-69
2023/08/10 00:39:58;;;;;;;4.80;1.90;;;;;;;13.55;88.20;101243.02;106832;1256;62717;-70
2023/08/10 00:42:24;;;;;;;3.70;1.80;;;;;;;13.52;88.23;101240.72;106201;1257;61252;-70
2023/08/10 00:44:51;;;;;;;5.90;1.90;;;;;;;13.49;88.44;101240.91;106619;1258;73478;-70
2023/08/10 00:47:19;;;;;;;4.40;1.90;;;;;;;13.44;88.72;101242.04;106760;1256;69945;-69
2023/08/10 00:49:47;;;;;;;6.70;1.80;;;;;;;13.42;88.94;101244.42;106143;1261;72767;-70
2023/08/10 00:52:15;;;;;;;6.30;2.00;;;;;;;13.39;89.21;101247.95;106233;1256;62925;-69
2023/08/10 00:54:42;;;;;;;5.90;2.00;;;;;;;13.37;89.24;101247.20;106093;1256;61279;-70
2023/08/10 00:57:08;;;;;;;5.60;2.20;;;;;;;13.34;89.72;101245.79;106569;1256;73481;-69
2023/08/10 00:59:37;;;;;;;7.10;2.10;;;;;;;13.32;90.02;101248.50;106072;1256;70030;-70
2023/08/10 01:02:04;;;;;;;6.60;2.00;;;;;;;13.31;90.36;101252.75;106905;1256;72564;-70
2023/08/10 01:04:31;;;;;;;6.40;2.00;;;;;;;13.30;90.77;101255.86;106918;1256;61301;-70
2023/08/10 01:07:23;;;;;;;6.20;2.20;;;;;;;13.30;91.14;101254.92;106168;1256;61363;-70
2023/08/10 01:09:57;;;;;;;9.00;2.50;;;;;;;13.32;90.95;101251.33;106320;1256;75333;-69
2023/08/10 01:12:51;;;;;;;9.00;2.10;;;;;;;13.33;91.31;101251.60;106169;1256;70001;-68
2023/08/10 01:15:24;;;;;;;6.50;2.30;;;;;;;13.33;91.52;101252.83;106268;1261;72721;-69
2023/08/10 01:17:55;;;;;;;6.80;2.50;;;;;;;13.34;91.74;101259.44;106178;1257;61308;-70
2023/08/10 01:20:23;;;;;;;5.70;2.20;;;;;;;13.34;92.32;101259.95;107045;1256;61454;-70
2023/08/10 01:22:56;;;;;;;6.20;2.30;;;;;;;13.35;92.82;101261.68;106455;1256;74660;-69
2023/08/10 01:25:25;;;;;;;5.40;2.20;;;;;;;13.34;92.81;101263.91;106335;1256;71403;-69
2023/08/10 01:27:52;;;;;;;5.20;2.10;;;;;;;13.33;93.01;101263.48;105923;1259;72647;-70
2023/08/10 01:30:19;;;;;;;10.90;2.80;;;;;;;13.34;92.84;101265.19;106204;1256;61303;-69
2023/08/10 01:32:46;;;;;;;5.10;2.10;;;;;;;13.33;92.96;101268.33;106171;1256;61285;-70
2023/08/10 01:35:13;;;;;;;5.10;2.50;;;;;;;13.31;92.95;101268.21;106343;1256;73375;-69
2023/08/10 01:37:40;;;;;;;5.30;2.30;;;;;;;13.29;92.85;101264.52;106747;1257;71161;-68
2023/08/10 01:40:08;;;;;;;7.40;2.30;;;;;;;13.26;93.12;101269.77;106785;1256;73133;-69
2023/08/10 01:42:35;;;;;;;5.60;2.30;;;;;;;13.23;93.43;101273.30;106130;1256;62586;-69
2023/08/10 01:45:04;;;;;;;5.00;2.10;;;;;;;13.20;93.47;101269.35;106331;1256;61295;-69
2023/08/10 01:47:38;;;;;;;4.60;2.20;;;;;;;13.20;93.56;101273.66;105906;1257;73486;-69
2023/08/10 01:50:08;;;;;;;5.80;2.20;;;;;;;13.19;93.89;101275.66;106431;1261;71047;-70
2023/08/10 01:52:46;;;;;;;4.50;2.30;;;;;;;13.20;93.79;101273.30;106885;1256;70222;-69
2023/08/10 01:55:13;;;;;;;7.50;2.30;;;;;;;13.19;93.84;101267.73;106823;1258;61502;-70
2023/08/10 01:57:40;;;;;;;4.00;1.90;;;;;;;13.18;93.51;101274.64;107520;1260;61238;-69
2023/08/10 02:00:07;;;;;;;6.60;2.50;;;;;;;13.15;93.50;101269.05;106771;1257;75281;-69
2023/08/10 02:02:35;;;;;;;5.80;2.00;;;;;;;13.11;93.49;101271.33;106859;1259;70241;-70
2023/08/10 02:05:01;;;;;;;5.60;2.00;;;;;;;13.06;93.41;101270.27;106729;1256;73371;-70
2023/08/10 02:07:28;;;;;;;7.00;2.40;;;;;;;13.04;93.46;101274.10;107017;1257;61139;-69
2023/08/10 02:09:55;;;;;;;6.40;2.40;;;;;;;13.02;93.36;101273.40;107020;1257;61309;-70
2023/08/10 02:12:22;;;;;;;6.20;2.40;;;;;;;12.96;93.54;101268.75;106693;1258;77301;-69
2023/08/10 02:14:51;;;;;;;7.00;2.60;;;;;;;12.92;94.29;101269.98;107600;1257;71189;-70
2023/08/10 02:17:18;;;;;;;6.60;2.90;;;;;;;12.89;95.09;101271.19;107232;1256;72380;-70
2023/08/10 02:19:45;;;;;;;9.30;2.50;;;;;;;12.87;95.32;101273.91;106778;1256;61117;-69
2023/08/10 02:22:11;;;;;;;6.40;2.30;;;;;;;12.85;95.30;101275.39;106640;1256;61353;-70
2023/08/10 02:24:38;;;;;;;9.40;2.30;;;;;;;12.81;95.04;101284.16;107343;1256;72730;-70
2023/08/10 02:27:04;;;;;;;6.60;2.10;;;;;;;12.77;94.92;101286.09;106870;1257;61169;-69
2023/08/10 02:29:31;;;;;;;4.70;2.10;;;;;;;12.71;94.67;101288.83;106722;1256;72803;-70
2023/08/10 02:31:59;;;;;;;6.30;2.80;;;;;;;12.65;94.78;101286.30;106765;1256;63564;-69
2023/08/10 02:34:26;;;;;;;5.20;2.60;;;;;;;12.61;95.28;101283.23;107234;1256;61404;-70
2023/08/10 02:36:52;;;;;;;6.20;2.50;;;;;;;12.57;95.37;101283.82;108058;1256;74675;-69
2023/08/10 02:39:19;;;;;;;7.70;2.60;;;;;;;12.54;95.27;101284.80;107467;1258;59390;-69
2023/08/10 02:41:46;;;;;;;7.50;1.90;;;;;;;12.49;95.34;101289.91;107628;1256;72408;-69
2023/08/10 02:44:12;;;;;;;5.20;2.40;;;;;;;12.44;95.36;101289.05;107523;1256;61381;-70
2023/08/10 02:46:39;;;;;;;3.50;2.30;;;;;;;12.40;95.52;101289.65;106804;1256;61253;-70
2023/08/10 02:49:06;;;;;;;6.40;2.40;;;;;;;12.36;95.69;101286.23;106978;1256;73338;-70
2023/08/10 02:51:32;;;;;;;7.10;2.60;;;;;;;12.33;95.90;101290.44;106756;1257;61295;-69
2023/08/10 02:53:59;;;;;;;7.70;2.60;;;;;;;12.31;96.19;101288.91;107672;1256;72695;-70
2023/08/10 02:56:25;;;;;;;7.10;2.40;;;;;;;12.27;96.15;101288.30;106897;1257;61851;-71
2023/08/10 02:58:52;;;;;;;8.70;2.30;;;;;;;12.24;96.09;101289.53;106988;1257;61215;-71
2023/08/10 03:01:19;;;;;;;7.70;2.20;;;;;;;12.20;95.69;101293.64;107164;1256;74668;-71
2023/08/10 03:03:45;;;;;;;8.70;2.40;;;;;;;12.17;96.37;101297.77;106673;1256;61378;-69
2023/08/10 03:06:12;;;;;;;7.00;2.40;;;;;;;12.17;96.72;101297.92;106949;1258;72847;-70
2023/08/10 03:08:39;;;;;;;6.40;2.60;;;;;;;12.15;96.90;101298.43;106792;1256;60767;-70
2023/08/10 03:11:05;;;;;;;8.50;2.60;;;;;;;12.15;97.23;101299.92;107638;1256;61266;-70
2023/08/10 03:13:32;;;;;;;7.60;2.50;;;;;;;12.15;97.17;101303.61;106955;1256;73433;-70
2023/08/10 03:15:59;;;;;;;8.50;2.90;;;;;;;12.14;97.53;101302.16;106702;1257;70006;-70
2023/08/10 03:18:26;;;;;;;6.20;2.90;;;;;;;12.13;97.68;101302.76;107049;1256;71463;-71
2023/08/10 03:20:52;;;;;;;9.00;3.30;;;;;;;12.12;98.07;101300.11;106901;1256;62252;-70
2023/08/10 03:23:19;;;;;;;7.70;2.90;;;;;;;12.11;98.17;101300.90;106924;1256;61276;-69
2023/08/10 03:25:46;;;;;;;7.00;2.50;;;;;;;12.11;98.34;101304.49;106528;1256;74897;-70
2023/08/10 03:28:14;;;;;;;8.90;2.40;;;;;;;12.10;98.30;101302.20;107256;1257;70467;-70
2023/08/10 03:30:41;;;;;;;6.10;2.40;;;;;;;12.11;98.51;101299.77;107104;1260;72653;-70
2023/08/10 03:33:07;;;;;;;6.30;2.50;;;;;;;12.12;98.55;101297.12;106979;1256;61498;-69
2023/08/10 03:35:34;;;;;;;6.20;2.60;;;;;;;12.16;98.73;101304.55;106790;1256;61167;-69
2023/08/10 03:38:01;;;;;;;4.40;2.40;;;;;;;12.18;98.83;101305.79;107155;1257;74656;-70
2023/08/10 03:40:27;;;;;;;8.50;2.80;;;;;;;12.20;98.79;101306.10;106864;1256;70503;-70
2023/08/10 03:42:54;;;;;;;6.90;3.00;;;;;;;12.20;98.91;101304.44;106781;1256;71467;-69
2023/08/10 03:45:21;;;;;;;7.10;2.90;;;;;;;12.22;98.97;101304.20;107375;1260;61714;-69
2023/08/10 03:47:48;;;;;;;8.60;3.50;;;;;;;12.22;98.93;101301.65;107641;1256;61139;-70
2023/08/10 03:50:15;;;;;;;7.20;3.30;;;;;;;12.22;99.19;101303.24;106733;1256;74015;-70
2023/08/10 03:52:42;;;;;;;5.50;2.70;;;;;;;12.21;99.41;101309.65;106611;1256;70176;-72
2023/08/10 03:55:09;;;;;;;6.60;2.70;;;;;;;12.20;99.54;101308.27;107271;1256;71767;-72
2023/08/10 03:57:35;;;;;;;8.30;3.20;;;;;;;12.19;99.42;101315.59;107252;1256;61647;-70
2023/08/10 04:00:04;;;;;;;6.90;2.80;;;;;;;12.16;99.56;101313.99;107219;1256;61264;-71
2023/08/10 04:02:30;;;;;;;7.40;2.90;;;;;;;12.15;99.57;101311.05;106923;1258;74395;-69
2023/08/10 04:04:58;;;;;;;5.90;2.60;;;;;;;12.15;99.64;101314.05;107849;1260;69652;-70
2023/08/10 04:07:25;;;;;;;4.70;2.80;;;;;;;12.14;99.43;101312.09;107106;1257;73833;-70
2023/08/10 04:09:51;;;;;;;7.30;2.70;;;;;;;12.10;99.64;101316.11;106732;1257;61887;-71
2023/08/10 04:12:18;;;;;;;6.00;2.60;;;;;;;12.07;99.58;101320.86;107102;1259;61176;-70
2023/08/10 04:14:45;;;;;;;7.30;2.70;;;;;;;12.04;99.74;101322.72;106869;1256;74625;-70
2023/08/10 04:17:12;;;;;;;6.10;2.90;;;;;;;12.02;99.95;101326.29;107116;1256;70429;-70
2023/08/10 04:19:39;;;;;;;8.10;2.60;;;;;;;12.02;100.00;101329.16;106801;1257;71569;-69
2023/08/10 04:22:06;;;;;;;7.80;2.90;;;;;;;12.01;100.00;101331.21;107406;1257;62001;-70
2023/08/10 04:24:33;;;;;;;5.90;2.60;;;;;;;12.01;99.88;101333.38;107096;1257;61691;-69
2023/08/10 04:27:00;;;;;;;5.20;2.80;;;;;;;12.01;99.95;101334.56;106841;1257;73804;-71
2023/08/10 04:29:27;;;;;;;8.50;3.10;;;;;;;12.03;99.97;101337.35;107364;1256;70016;-71
2023/08/10 04:31:54;;;;;;;6.60;3.00;;;;;;;12.05;100.00;101335.80;106873;1260;71630;-71
2023/08/10 04:34:21;;;;;;;7.00;2.90;;;;;;;12.04;100.00;101337.94;106939;1256;61376;-70
2023/08/10 04:36:48;;;;;;;5.70;2.80;;;;;;;12.07;100.00;101341.90;106759;1256;61256;-70
2023/08/10 04:39:15;;;;;;;6.00;3.20;;;;;;;12.12;100.00;101336.95;107106;1256;75284;-71
2023/08/10 04:41:41;;;;;;;7.60;3.20;;;;;;;12.16;100.00;101337.20;107215;1259;70115;-70
2023/08/10 04:44:08;;;;;;;6.40;3.20;;;;;;;12.19;100.00;101338.79;107582;1256;72764;-70
2023/08/10 04:46:35;;;;;;;8.10;4.10;;;;;;;12.20;100.00;101338.94;107316;1256;62075;-71
2023/08/10 04:49:02;;;;;;;9.00;3.80;;;;;;;12.24;100.00;101341.80;106907;1256;61276;-70
2023/08/10 04:51:29;;;;;;;8.40;3.90;;;;;;;12.30;100.00;101340.79;106739;1256;221021;-72
2023/08/10 04:53:55;;;;;;;8.90;3.90;;;;;;;12.38;100.00;101346.20;106687;1257;70771;-72
2023/08/10 04:56:22;;;;;;;5.90;3.50;;;;;;;12.45;100.00;101348.59;107213;1256;70828;-71
2023/08/10 04:58:49;;;;;;;8.30;3.80;;;;;;;12.52;100.00;101351.67;106806;1256;61202;-71
2023/08/10 05:01:15;;;;;;;11.10;4.00;;;;;;;12.59;100.00;101356.04;107319;1257;61233;-73
2023/08/10 05:03:42;;;;;;;9.70;4.20;;;;;;;12.67;100.00;101356.54;107824;1256;73289;-72
2023/08/10 05:06:09;;;;;;;9.80;4.60;;;;;;;12.77;100.00;101350.80;107094;1258;71445;-70
2023/08/10 05:08:36;;;;;;;27.20;15.40;;;;;;;12.87;100.00;101348.84;106896;1256;72780;-71
2023/08/10 05:11:03;;;;;;;11.70;6.90;;;;;;;12.95;100.00;101351.29;106684;1256;61219;-71
2023/08/10 05:13:30;;;;;;;9.10;4.70;;;;;;;13.05;100.00;101355.07;107153;1256;62967;-70
2023/08/10 05:15:57;;;;;;;9.10;4.60;;;;;;;13.15;100.00;101356.43;106912;1256;72191;-72
2023/08/10 05:18:24;;;;;;;14.80;8.60;;;;;;;13.25;100.00;101358.51;107167;1256;69295;-71
2023/08/10 05:20:50;;;;;;;62.90;43.10;;;;;;;13.58;100.00;101356.46;107574;1257;72725;-71
2023/08/10 05:23:17;;;;;;;9.70;4.40;;;;;;;14.44;100.00;101360.68;107367;1263;61169;-69
2023/08/10 05:25:44;;;;;;;7.90;3.80;;;;;;;14.97;100.00;101358.15;108717;1256;60162;-71
2023/08/10 05:28:11;;;;;;;6.40;3.70;;;;;;;15.34;100.00;101359.69;106638;1256;73532;-70
2023/08/10 05:30:37;;;;;;;8.30;3.30;;;;;;;15.73;100.00;101359.27;106753;1257;71394;-69
2023/08/10 05:33:04;;;;;;;9.20;3.30;;;;;;;15.99;100.00;101360.48;107063;1257;72677;-70
2023/08/10 05:35:31;;;;;;;6.80;3.20;;;;;;;16.25;99.46;101362.19;107370;1256;61382;-71
2023/08/10 05:37:58;;;;;;;11.00;3.30;;;;;;;16.57;97.63;101361.63;107303;1257;62327;-71
2023/08/10 05:40:25;;;;;;;6.50;2.80;;;;;;;16.81;95.05;101364.84;107026;1257;73463;-71
2023/08/10 05:42:51;;;;;;;6.20;3.30;;;;;;;17.17;94.49;101362.41;106859;1257;71146;-70
2023/08/10 05:45:19;;;;;;;6.90;3.50;;;;;;;17.61;91.89;101363.25;107086;1259;72492;-71
2023/08/10 05:47:47;;;;;;;7.80;2.90;;;;;;;17.76;88.75;101365.23;106763;1262;62410;-70
2023/08/10 05:50:14;;;;;;;7.00;2.70;;;;;;;17.69;85.22;101367.26;106817;1258;61379;-70
2023/08/10 05:52:43;;;;;;;8.80;3.30;;;;;;;17.63;85.56;101363.66;106790;1256;74157;-71
2023/08/10 05:55:09;;;;;;;7.40;3.00;;;;;;;17.62;85.09;101365.85;107693;1259;71582;-71
2023/08/10 05:57:36;;;;;;;7.20;3.30;;;;;;;17.69;85.40;101368.25;107317;1256;71768;-70
2023/08/10 06:00:03;;;;;;;6.10;3.00;;;;;;;17.85;84.72;101366.75;106982;1257;60752;-70
2023/08/10 06:02:30;;;;;;;6.00;2.90;;;;;;;17.84;83.07;101372.13;108179;1257;59158;-70
2023/08/10 06:04:56;;;;;;;9.70;3.50;;;;;;;17.77;82.19;101368.42;108873;1256;75327;-71
2023/08/10 06:07:23;;;;;;;8.40;3.20;;;;;;;17.60;81.55;101370.19;108850;1256;71721;-70
2023/08/10 06:09:50;;;;;;;8.70;3.40;;;;;;;17.41;81.81;101368.84;108841;1257;71493;-70
2023/08/10 06:12:18;;;;;;;9.10;3.60;;;;;;;17.23;81.85;101368.46;108618;1256;60468;-71
2023/08/10 06:14:45;;;;;;;12.20;5.90;;;;;;;17.01;82.13;101374.34;108866;1256;60069;-70
2023/08/10 06:17:12;;;;;;;14.10;5.90;;;;;;;16.90;82.96;101377.80;108066;1256;75671;-70
2023/08/10 06:19:38;;;;;;;6.50;3.60;;;;;;;16.86;83.56;101378.45;107003;1257;71422;-69
2023/08/10 06:22:05;;;;;;;107.70;74.90;;;;;;;16.88;84.84;101380.85;106962;1256;72730;-71
2023/08/10 06:24:32;;;;;;;9.00;3.70;;;;;;;17.28;87.89;101377.48;106924;1257;63257;-71
2023/08/10 06:26:59;;;;;;;9.70;3.80;;;;;;;17.40;83.94;101374.85;107237;1258;61375;-71
2023/08/10 06:29:26;;;;;;;8.30;3.30;;;;;;;17.40;83.33;101372.42;108836;1256;73419;-71
2023/08/10 06:31:54;;;;;;;8.10;3.20;;;;;;;17.43;83.46;101376.15;108268;1256;70577;-71
2023/08/10 06:34:21;;;;;;;13.10;6.80;;;;;;;17.43;82.32;101378.12;107144;1256;71485;-70
2023/08/10 06:36:48;;;;;;;8.70;3.60;;;;;;;17.40;81.93;101380.34;106895;1260;61257;-70
2023/08/10 06:39:15;;;;;;;7.60;2.80;;;;;;;17.41;81.26;101380.44;108143;1257;61237;-70
2023/08/10 06:41:42;;;;;;;37.40;24.90;;;;;;;17.43;81.20;101383.16;107068;1257;73960;-70
2023/08/10 06:44:09;;;;;;;8.80;4.10;;;;;;;17.49;81.38;101384.66;106868;1256;70090;-71
2023/08/10 06:46:36;;;;;;;6.70;2.90;;;;;;;17.55;81.01;101385.36;106799;1256;71343;-72
2023/08/10 06:49:02;;;;;;;21.30;13.60;;;;;;;17.53;79.97;101386.30;107727;1258;61370;-73
2023/08/10 06:51:29;;;;;;;4.50;1.90;;;;;;;17.49;78.82;101387.21;106721;1262;61257;-72
2023/08/10 06:53:56;;;;;;;6.30;2.40;;;;;;;17.40;78.04;101386.41;107008;1257;74721;-70
2023/08/10 06:56:22;;;;;;;5.30;2.10;;;;;;;17.35;78.14;101388.84;106052;1256;69464;-70
2023/08/10 07:04:59;;;;;;;5.80;1.80;;;;;;;17.49;75.74;101400.63;86954;1264;60277;31
2023/08/10 07:07:26;;;;;;;7.90;1.90;;;;;;;17.59;76.37;101402.91;106915;1261;74614;-69
2023/08/10 07:09:53;;;;;;;5.20;1.50;;;;;;;17.72;76.56;101398.27;105664;1266;69695;-69
2023/08/10 07:12:20;;;;;;;5.80;1.40;;;;;;;17.85;75.98;101397.23;105733;1264;73285;-69
2023/08/10 07:14:46;;;;;;;8.40;2.00;;;;;;;17.95;74.89;101397.89;106201;1263;61229;-69
2023/08/10 07:17:13;;;;;;;4.40;1.80;;;;;;;17.99;73.59;101397.35;105663;1261;61371;-70
2023/08/10 07:19:40;;;;;;;5.50;1.40;;;;;;;17.97;72.62;101397.46;105843;1265;72969;-69
2023/08/10 07:22:07;;;;;;;7.90;2.20;;;;;;;17.98;72.55;101393.05;105710;1265;71128;-69
2023/08/10 07:24:33;;;;;;;8.40;3.10;;;;;;;17.96;71.77;101395.86;106004;1266;71689;-71
2023/08/10 07:27:00;;;;;;;13.80;7.20;;;;;;;17.93;71.44;101389.22;105788;1269;61437;-71
2023/08/10 07:29:27;;;;;;;17.80;10.90;;;;;;;17.93;70.22;101392.12;105663;1264;61268;-69
2023/08/10 07:32:00;;;;;;;16.50;7.80;;;;;;;17.86;70.48;101394.74;105841;1267;73447;-70
2023/08/10 07:34:27;;;;;;;5.60;1.40;;;;;;;17.81;70.53;101398.02;106194;1262;71113;-72
2023/08/10 07:36:54;;;;;;;11.70;6.20;;;;;;;17.76;69.79;101397.36;107199;1264;71769;-70
2023/08/10 07:39:21;;;;;;;14.80;8.40;;;;;;;17.80;70.23;101398.49;105836;1262;61272;-70
2023/08/10 07:41:48;;;;;;;7.10;2.60;;;;;;;17.93;69.73;101395.91;105580;1264;61370;-69
2023/08/10 07:44:14;;;;;;;19.50;12.20;;;;;;;18.03;70.22;101399.88;105682;1264;73548;-70
2023/08/10 07:46:41;;;;;;;16.90;9.30;;;;;;;18.13;68.99;101400.69;106009;1264;70968;-69
2023/08/10 07:49:08;;;;;;;18.30;10.70;;;;;;;18.13;68.01;101402.80;105757;1266;72683;-69
2023/08/10 07:51:35;;;;;;;18.80;8.30;;;;;;;18.16;68.50;101402.30;105707;1262;61263;-70
2023/08/10 07:54:02;;;;;;;5.90;1.50;;;;;;;18.21;69.06;101398.50;105797;1262;61196;-69
2023/08/10 07:56:28;;;;;;;6.90;1.90;;;;;;;18.30;68.73;101397.83;105712;1267;74733;-70
2023/08/10 07:58:55;;;;;;;5.50;1.70;;;;;;;18.38;68.50;101397.70;106010;1264;70971;-70
2023/08/10 08:01:22;;;;;;;6.00;1.50;;;;;;;18.44;67.48;101395.45;105671;1263;72694;-69
2023/08/10 08:03:49;;;;;;;17.80;9.70;;;;;;;18.51;67.59;101395.52;105727;1266;61572;-70
2023/08/10 08:06:16;;;;;;;5.30;1.70;;;;;;;18.58;67.19;101397.06;105724;1266;61374;-69
2023/08/10 08:08:43;;;;;;;8.70;5.00;;;;;;;18.71;67.32;101392.48;105856;1267;75639;-70
2023/08/10 08:11:10;;;;;;;13.20;6.20;;;;;;;18.90;66.33;101395.91;105519;1267;69934;-69
2023/08/10 08:13:37;;;;;;;10.90;5.00;;;;;;;19.11;65.20;101392.16;105835;1263;71818;-70
2023/08/10 08:16:04;;;;;;;6.40;1.50;;;;;;;19.41;64.37;101394.42;105512;1269;61904;-69
2023/08/10 08:18:46;;;;;;;5.20;1.10;;;;;;;19.67;63.57;101396.24;105760;1267;61351;-70
2023/08/10 08:21:17;;;;;;;7.00;2.50;;;;;;;19.90;62.67;101397.54;105661;1264;74700;-70
2023/08/10 08:23:45;;;;;;;5.20;1.50;;;;;;;20.02;60.76;101392.05;105824;1269;68976;-68
2023/08/10 08:26:14;;;;;;;5.20;1.50;;;;;;;20.05;61.07;101391.06;105535;1267;71136;-68
2023/08/10 08:28:42;;;;;;;10.70;5.30;;;;;;;19.87;61.52;101391.98;105797;1263;61694;-70
2023/08/10 08:31:08;;;;;;;14.10;3.60;;;;;;;19.69;62.53;101394.41;105732;1268;61208;-69
2023/08/10 08:33:37;;;;;;;14.60;8.10;;;;;;;19.55;63.13;101395.02;105685;1263;73725;-71
2023/08/10 08:36:04;;;;;;;11.20;6.20;;;;;;;19.45;63.15;101399.36;105937;1264;69909;-70
2023/08/10 08:38:32;;;;;;;8.60;2.20;;;;;;;19.22;63.40;101401.02;105872;1262;73818;-70
2023/08/10 08:41:04;;;;;;;8.00;3.30;;;;;;;19.13;64.17;101406.36;105558;1264;61441;-69
2023/08/10 08:43:32;;;;;;;10.10;3.60;;;;;;;19.11;63.92;101406.24;105755;1264;61298;-70
2023/08/10 08:46:00;;;;;;;4.00;1.30;;;;;;;19.12;64.22;101406.82;105820;1264;73569;-71
2023/08/10 08:48:27;;;;;;;75.30;46.60;;;;;;;19.25;64.33;101408.95;105899;1262;69917;-72
2023/08/10 08:50:54;;;;;;;7.90;3.10;;;;;;;19.52;65.00;101405.73;106106;1262;73885;-69
2023/08/10 08:53:22;;;;;;;3.30;1.30;;;;;;;19.84;64.58;101403.79;106563;1269;61498;-70
2023/08/10 08:55:49;;;;;;;3.30;1.10;;;;;;;20.27;63.71;101400.23;107696;1263;61218;-71
2023/08/10 08:58:17;;;;;;;4.80;1.00;;;;;;;20.58;58.21;101405.01;105960;1264;74700;-71
2023/08/10 09:00:54;;;;;;;5.80;1.50;;;;;;;20.74;57.17;101407.48;106079;1264;70748;-70
2023/08/10 09:03:23;;;;;;;4.80;1.10;;;;;;;20.85;56.24;101404.57;105696;1264;71485;-68
2023/08/10 09:05:50;;;;;;;3.50;0.90;;;;;;;20.94;57.31;101405.73;106080;1264;61266;-70
2023/08/10 09:08:18;;;;;;;3.40;0.80;;;;;;;21.08;55.95;101408.77;106067;1263;60645;-69
2023/08/10 09:10:46;;;;;;;6.50;1.00;;;;;;;20.92;55.62;101407.02;105763;1264;75085;-69
2023/08/10 09:13:21;;;;;;;4.10;1.00;;;;;;;20.68;55.95;101410.90;105971;1266;69956;-69
2023/08/10 09:16:05;;;;;;;3.80;1.20;;;;;;;20.43;57.07;101410.10;105898;1264;72708;-70
2023/08/10 09:18:36;;;;;;;4.60;1.30;;;;;;;20.22;57.26;101406.58;105785;1263;61820;-69
2023/08/10 09:21:14;;;;;;;6.00;1.20;;;;;;;20.15;58.31;101404.44;105860;1267;61280;-68
2023/08/10 09:23:43;;;;;;;5.80;1.40;;;;;;;20.24;58.59;101401.91;106005;1263;74557;-69
2023/08/10 09:26:11;;;;;;;5.20;1.00;;;;;;;20.38;57.76;101401.70;105714;1264;71363;-69
2023/08/10 09:28:38;;;;;;;5.00;1.50;;;;;;;20.69;58.02;101406.30;105523;1263;72770;-69
2023/08/10 09:31:07;;;;;;;6.00;1.90;;;;;;;21.01;56.60;101401.01;105540;1264;61338;-69
2023/08/10 09:33:36;;;;;;;6.30;1.10;;;;;;;21.23;55.28;101400.80;106116;1264;59637;-69
2023/08/10 09:36:05;;;;;;;7.60;1.50;;;;;;;21.42;55.31;101401.39;106124;1268;74707;-70
2023/08/10 09:38:33;;;;;;;3.50;1.00;;;;;;;21.55;54.08;101401.36;105567;1264;71213;-70
2023/08/10 09:41:13;;;;;;;9.30;5.20;;;;;;;21.52;52.85;101403.33;105511;1263;72704;-69
2023/08/10 09:43:42;;;;;;;7.60;2.10;;;;;;;21.32;52.72;101409.02;105759;1264;62252;-71
2023/08/10 09:46:10;;;;;;;3.60;1.30;;;;;;;21.08;53.32;101405.41;105708;1267;61293;-69
2023/08/10 09:48:45;;;;;;;8.10;3.40;;;;;;;20.91;54.36;101405.86;105831;1263;74600;-69
2023/08/10 09:51:13;;;;;;;41.40;27.90;;;;;;;20.77;54.04;101410.38;106102;1264;69772;-70
2023/08/10 09:53:41;;;;;;;3.90;1.40;;;;;;;20.61;52.13;101411.67;105629;1263;70845;-68
2023/08/10 09:56:08;;;;;;;24.30;11.80;;;;;;;20.51;52.63;101408.61;105724;1263;61264;-70
2023/08/10 09:58:40;;;;;;;10.60;4.50;;;;;;;20.64;53.24;101412.14;105678;1263;63552;-70
2023/08/10 10:01:09;;;;;;;18.60;11.00;;;;;;;20.94;53.59;101408.27;105864;1264;74829;-72
2023/08/10 10:03:40;;;;;;;5.70;1.50;;;;;;;21.19;51.84;101409.70;105464;1264;71523;-70
2023/08/10 10:06:08;;;;;;;11.00;6.30;;;;;;;21.38;50.28;101404.78;105937;1263;70513;-71
2023/08/10 10:08:38;;;;;;;31.00;20.10;;;;;;;21.58;49.66;101401.92;105391;1269;61392;-70
2023/08/10 10:11:13;;;;;;;4.60;2.10;;;;;;;21.84;49.25;101401.17;106062;1264;61266;-72
2023/08/10 10:13:41;;;;;;;23.60;13.80;;;;;;;21.91;47.25;101405.33;105613;1266;74697;-70
2023/08/10 10:16:10;;;;;;;21.50;12.70;;;;;;;21.89;47.94;101397.50;105777;1265;70864;-69
2023/08/10 10:18:37;;;;;;;23.80;16.40;;;;;;;21.99;48.38;101396.39;105767;1266;72621;-69
2023/08/10 10:21:04;;;;;;;51.20;33.90;;;;;;;22.01;48.02;101390.50;106239;1263;61370;-68
2023/08/10 10:23:31;;;;;;;19.00;10.70;;;;;;;22.02;47.95;101391.80;105623;1263;61273;-70
2023/08/10 10:26:01;;;;;;;7.20;3.80;;;;;;;21.74;46.70;101397.30;105510;1264;74722;-70
2023/08/10 10:28:31;;;;;;;6.20;3.00;;;;;;;21.39;46.74;101398.81;105765;1264;71949;-69
2023/08/10 10:31:03;;;;;;;4.60;1.30;;;;;;;21.18;47.70;101393.80;106149;1262;72416;-70
2023/08/10 10:33:34;;;;;;;3.00;0.80;;;;;;;21.24;47.65;101392.69;105589;1264;61160;-69
2023/08/10 10:36:12;;;;;;;3.10;0.90;;;;;;;21.44;46.71;101395.02;106028;1264;61245;-69
2023/08/10 10:38:54;;;;;;;3.50;1.10;;;;;;;21.60;46.52;101389.90;105636;1263;73375;-70
2023/08/10 10:41:37;;;;;;;3.10;0.80;;;;;;;21.48;47.59;101397.87;105921;1265;71199;-68
2023/08/10 10:44:05;;;;;;;3.90;0.90;;;;;;;21.41;46.98;101397.95;105669;1263;72610;-69
2023/08/10 10:46:36;;;;;;;2.70;0.80;;;;;;;21.40;46.98;101396.22;105718;1263;61272;-69
2023/08/10 10:49:11;;;;;;;4.80;0.90;;;;;;;21.54;47.00;101387.34;105830;1263;61266;-69
2023/08/10 10:52:01;;;;;;;20.30;13.70;;;;;;;21.77;46.13;101389.80;105801;1263;73613;-70
2023/08/10 10:54:34;;;;;;;19.20;12.70;;;;;;;21.99;45.47;101394.38;105693;1264;71018;-70
2023/08/10 10:57:01;;;;;;;8.30;3.90;;;;;;;22.23;45.78;101384.89;105772;1263;71714;-69
2023/08/10 10:59:28;;;;;;;4.60;1.70;;;;;;;22.38;44.84;101384.45;106039;1262;61183;-69
2023/08/10 11:01:54;;;;;;;3.60;1.30;;;;;;;22.35;43.78;101385.50;106746;1262;59978;-69
2023/08/10 11:04:24;;;;;;;4.10;1.10;;;;;;;22.34;45.21;101386.45;105865;1263;73520;-69
2023/08/10 11:06:51;;;;;;;4.30;1.00;;;;;;;22.44;46.21;101379.16;105945;1266;70130;-69
2023/08/10 11:09:20;;;;;;;4.50;0.80;;;;;;;22.62;46.56;101372.30;105652;1264;71675;-69
2023/08/10 11:11:49;;;;;;;5.20;1.60;;;;;;;22.80;45.67;101371.14;106066;1262;61386;-69
2023/08/10 11:14:16;;;;;;;15.80;10.60;;;;;;;22.72;44.41;101378.02;105764;1264;61820;-69
2023/08/10 11:16:43;;;;;;;17.70;11.70;;;;;;;22.51;44.29;101376.27;105773;1264;74746;-69
2023/08/10 11:19:13;;;;;;;6.80;1.90;;;;;;;22.36;45.35;101374.83;105791;1262;70953;-70
2023/08/10 11:21:44;;;;;;;8.40;1.90;;;;;;;22.44;45.14;101372.50;105815;1262;72685;-69
2023/08/10 11:24:12;;;;;;;8.30;4.30;;;;;;;22.48;44.62;101369.78;105767;1262;61413;-68